sensor_id;sensor_type;location;lat;lon;timestamp;pressure;altitude;pressure_sealevel;temperature;humidity
41688;BME280;27371;42.686;23.362;2023-02-11T00:01:15;161409.56;;;-3.05;62.79
41688;BME280;27371;42.686;23.362;2023-02-11T00:03:43;161361.88;;;-3.24;62.35
41688;BME280;27371;42.686;23.362;2023-02-11T00:06:10;161352.63;;;-3.27;62.25
41688;BME280;27371;42.686;23.362;2023-02-11T00:08:36;161335.38;;;-3.34;62.53
41688;BME280;27371;42.686;23.362;2023-02-11T00:11:02;161387.06;;;-3.14;62.44
41688;BME280;27371;42.686;23.362;2023-02-11T00:13:28;161330.13;;;-3.36;62.57
41688;BME280;27371;42.686;23.362;2023-02-11T00:15:54;161360.56;;;-3.24;62.20
41688;BME280;27371;42.686;23.362;2023-02-11T00:18:20;161360.56;;;-3.24;62.24
41688;BME280;27371;42.686;23.362;2023-02-11T00:20:45;161335.38;;;-3.34;62.37
41688;BME280;27371;42.686;23.362;2023-02-11T00:23:11;161315.56;;;-3.42;62.26
41688;BME280;27371;42.686;23.362;2023-02-11T00:25:41;161316.88;;;-3.41;62.14
41688;BME280;27371;42.686;23.362;2023-02-11T00:28:08;161328.75;;;-3.37;62.21
41688;BME280;27371;42.686;23.362;2023-02-11T00:30:33;161339.38;;;-3.32;62.27
41688;BME280;27371;42.686;23.362;2023-02-11T00:32:59;161328.75;;;-3.37;62.48
41688;BME280;27371;42.686;23.362;2023-02-11T00:35:24;161328.75;;;-3.37;62.45
41688;BME280;27371;42.686;23.362;2023-02-11T00:37:52;161299.66;;;-3.48;62.28
41688;BME280;27371;42.686;23.362;2023-02-11T00:40:18;161316.88;;;-3.41;62.26
41688;BME280;27371;42.686;23.362;2023-02-11T00:42:43;161258.66;;;-3.64;62.38
41688;BME280;27371;42.686;23.362;2023-02-11T00:45:09;161298.34;;;-3.48;62.31
41688;BME280;27371;42.686;23.362;2023-02-11T00:47:35;161200.38;;;-3.86;62.09
41688;BME280;27371;42.686;23.362;2023-02-11T00:50:01;161273.22;;;-3.58;62.38
41688;BME280;27371;42.686;23.362;2023-02-11T00:52:28;161278.47;;;-3.56;62.27
41688;BME280;27371;42.686;23.362;2023-02-11T00:54:54;161299.66;;;-3.48;61.82
41688;BME280;27371;42.686;23.362;2023-02-11T00:57:19;161302.31;;;-3.47;61.88
41688;BME280;27371;42.686;23.362;2023-02-11T00:59:45;161285.09;;;-3.53;61.87
41688;BME280;27371;42.686;23.362;2023-02-11T01:02:10;161314.22;;;-3.42;61.48
41688;BME280;27371;42.686;23.362;2023-02-11T01:04:36;161327.44;;;-3.37;61.69
41688;BME280;27371;42.686;23.362;2023-02-11T01:07:01;161319.50;;;-3.40;61.13
41688;BME280;27371;42.686;23.362;2023-02-11T01:09:28;161338.06;;;-3.33;60.82
41688;BME280;27371;42.686;23.362;2023-02-11T01:11:53;161323.50;;;-3.39;61.12
41688;BME280;27371;42.686;23.362;2023-02-11T01:14:19;161344.69;;;-3.30;60.93
41688;BME280;27371;42.686;23.362;2023-02-11T01:16:44;161334.06;;;-3.34;60.87
41688;BME280;27371;42.686;23.362;2023-02-11T01:19:10;161312.91;;;-3.43;60.66
41688;BME280;27371;42.686;23.362;2023-02-11T01:21:35;161308.94;;;-3.44;60.32
41688;BME280;27371;42.686;23.362;2023-02-11T01:24:01;161269.22;;;-3.60;60.16
41688;BME280;27371;42.686;23.362;2023-02-11T01:26:26;161213.63;;;-3.81;61.42
41688;BME280;27371;42.686;23.362;2023-02-11T01:28:51;161125.00;;;-4.15;62.38
41688;BME280;27371;42.686;23.362;2023-02-11T01:31:17;161183.19;;;-3.93;62.35
41688;BME280;27371;42.686;23.362;2023-02-11T01:33:43;161160.72;;;-4.01;62.44
41688;BME280;27371;42.686;23.362;2023-02-11T01:36:10;161191.13;;;-3.90;62.12
41688;BME280;27371;42.686;23.362;2023-02-11T01:38:36;161205.69;;;-3.84;62.14
41688;BME280;27371;42.686;23.362;2023-02-11T01:41:05;161189.81;;;-3.90;62.59
41688;BME280;27371;42.686;23.362;2023-02-11T01:43:39;161209.69;;;-3.83;62.39
41688;BME280;27371;42.686;23.362;2023-02-11T01:48:42;161196.44;;;-3.88;62.51
41688;BME280;27371;42.686;23.362;2023-02-11T01:51:16;161189.81;;;-3.90;62.27
41688;BME280;27371;42.686;23.362;2023-02-11T01:53:43;161173.94;;;-3.96;62.64
41688;BME280;27371;42.686;23.362;2023-02-11T01:56:29;161152.78;;;-4.05;63.38
41688;BME280;27371;42.686;23.362;2023-02-11T01:59:21;161191.13;;;-3.90;62.71
41688;BME280;27371;42.686;23.362;2023-02-11T02:01:56;161175.25;;;-3.96;62.98
41688;BME280;27371;42.686;23.362;2023-02-11T02:04:22;161122.31;;;-4.16;63.23
41688;BME280;27371;42.686;23.362;2023-02-11T02:07:01;161152.78;;;-4.05;63.12
41688;BME280;27371;42.686;23.362;2023-02-11T02:09:31;161155.41;;;-4.04;63.44
41688;BME280;27371;42.686;23.362;2023-02-11T02:11:59;161136.91;;;-4.11;63.48
41688;BME280;27371;42.686;23.362;2023-02-11T02:14:24;161132.91;;;-4.12;63.84
41688;BME280;27371;42.686;23.362;2023-02-11T02:16:50;161143.47;;;-4.08;63.87
41688;BME280;27371;42.686;23.362;2023-02-11T02:19:40;161128.94;;;-4.14;64.38
41688;BME280;27371;42.686;23.362;2023-02-11T02:38:18;161062.78;;;-4.39;65.05
41688;BME280;27371;42.686;23.362;2023-02-11T02:40:49;161042.94;;;-4.47;65.14
41688;BME280;27371;42.686;23.362;2023-02-11T02:43:17;161005.91;;;-4.61;65.30
41688;BME280;27371;42.686;23.362;2023-02-11T02:45:43;161025.78;;;-4.54;65.37
41688;BME280;27371;42.686;23.362;2023-02-11T02:48:26;161028.41;;;-4.53;65.58
41688;BME280;27371;42.686;23.362;2023-02-11T02:51:02;161021.78;;;-4.55;65.79
41688;BME280;27371;42.686;23.362;2023-02-11T02:56:14;160996.69;;;-4.65;66.32
41688;BME280;27371;42.686;23.362;2023-02-11T03:06:44;160868.41;;;-5.15;66.92
41688;BME280;27371;42.686;23.362;2023-02-11T03:11:52;160882.94;;;-5.09;67.84
41688;BME280;27371;42.686;23.362;2023-02-11T03:14:18;160885.59;;;-5.08;67.71
41688;BME280;27371;42.686;23.362;2023-02-11T03:16:47;160898.81;;;-5.03;67.27
41688;BME280;27371;42.686;23.362;2023-02-11T03:19:22;160934.50;;;-4.89;67.22
41688;BME280;27371;42.686;23.362;2023-02-11T03:21:51;160925.25;;;-4.93;67.24
41688;BME280;27371;42.686;23.362;2023-02-11T03:24:32;160950.38;;;-4.83;66.76
41688;BME280;27371;42.686;23.362;2023-02-11T03:27:32;160970.22;;;-4.75;66.74
41688;BME280;27371;42.686;23.362;2023-02-11T03:33:07;160976.81;;;-4.73;66.13
41688;BME280;27371;42.686;23.362;2023-02-11T03:35:58;160982.13;;;-4.71;66.44
41688;BME280;27371;42.686;23.362;2023-02-11T03:38:32;160979.44;;;-4.72;66.05
41688;BME280;27371;42.686;23.362;2023-02-11T03:41:00;160967.59;;;-4.76;65.97
41688;BME280;27371;42.686;23.362;2023-02-11T03:43:37;160995.38;;;-4.65;65.99
41688;BME280;27371;42.686;23.362;2023-02-11T03:46:05;160996.69;;;-4.65;65.50
41688;BME280;27371;42.686;23.362;2023-02-11T03:48:43;161008.59;;;-4.60;65.63
41688;BME280;27371;42.686;23.362;2023-02-11T03:51:13;161013.84;;;-4.58;65.67
41688;BME280;27371;42.686;23.362;2023-02-11T03:53:42;161023.13;;;-4.55;65.36
41688;BME280;27371;42.686;23.362;2023-02-11T03:56:12;161033.69;;;-4.51;65.36
41688;BME280;27371;42.686;23.362;2023-02-11T03:58:39;161041.63;;;-4.48;65.52
41688;BME280;27371;42.686;23.362;2023-02-11T04:01:05;161042.94;;;-4.47;65.09
41688;BME280;27371;42.686;23.362;2023-02-11T04:03:33;161045.63;;;-4.46;65.14
41688;BME280;27371;42.686;23.362;2023-02-11T04:05:59;161046.94;;;-4.45;65.05
41688;BME280;27371;42.686;23.362;2023-02-11T04:08:24;161050.88;;;-4.44;65.23
41688;BME280;27371;42.686;23.362;2023-02-11T04:10:50;161039.00;;;-4.49;64.70
41688;BME280;27371;42.686;23.362;2023-02-11T04:13:15;161003.28;;;-4.62;64.90
41688;BME280;27371;42.686;23.362;2023-02-11T04:15:41;160974.19;;;-4.74;65.13
41688;BME280;27371;42.686;23.362;2023-02-11T04:18:06;160925.25;;;-4.93;64.64
41688;BME280;27371;42.686;23.362;2023-02-11T04:20:32;160884.28;;;-5.08;64.79
41688;BME280;27371;42.686;23.362;2023-02-11T04:22:57;160845.94;;;-5.23;65.49
41688;BME280;27371;42.686;23.362;2023-02-11T04:25:23;160818.19;;;-5.34;65.63
41688;BME280;27371;42.686;23.362;2023-02-11T04:27:50;160770.59;;;-5.52;65.59
41688;BME280;27371;42.686;23.362;2023-02-11T04:30:15;160766.66;;;-5.54;65.84
41688;BME280;27371;42.686;23.362;2023-02-11T04:32:41;160734.91;;;-5.66;66.07
41688;BME280;27371;42.686;23.362;2023-02-11T04:35:06;160730.97;;;-5.68;66.91
41688;BME280;27371;42.686;23.362;2023-02-11T04:37:32;160732.28;;;-5.67;66.67
41688;BME280;27371;42.686;23.362;2023-02-11T04:39:57;160757.34;;;-5.57;66.84
41688;BME280;27371;42.686;23.362;2023-02-11T04:42:23;160767.97;;;-5.53;66.77
41688;BME280;27371;42.686;23.362;2023-02-11T04:44:48;160740.19;;;-5.64;66.78
41688;BME280;27371;42.686;23.362;2023-02-11T04:47:14;160717.75;;;-5.73;66.75
41688;BME280;27371;42.686;23.362;2023-02-11T04:49:40;160667.53;;;-5.92;67.05
41688;BME280;27371;42.686;23.362;2023-02-11T04:52:06;160626.63;;;-6.08;67.50
41688;BME280;27371;42.686;23.362;2023-02-11T04:54:32;160616.03;;;-6.12;67.74
41688;BME280;27371;42.686;23.362;2023-02-11T04:56:57;160616.03;;;-6.12;68.03
41688;BME280;27371;42.686;23.362;2023-02-11T04:59:23;160647.75;;;-6.00;68.16
41688;BME280;27371;42.686;23.362;2023-02-11T05:01:49;160663.59;;;-5.94;68.18
41688;BME280;27371;42.686;23.362;2023-02-11T05:04:15;160682.06;;;-5.87;68.51
41688;BME280;27371;42.686;23.362;2023-02-11T05:06:41;160705.84;;;-5.77;68.29
41688;BME280;27371;42.686;23.362;2023-02-11T05:09:06;160692.59;;;-5.83;67.84
41688;BME280;27371;42.686;23.362;2023-02-11T05:11:33;160708.47;;;-5.76;68.08
41688;BME280;27371;42.686;23.362;2023-02-11T05:13:58;160679.38;;;-5.88;67.55
41688;BME280;27371;42.686;23.362;2023-02-11T05:16:24;160624.00;;;-6.09;67.62
41688;BME280;27371;42.686;23.362;2023-02-11T05:18:49;160585.66;;;-6.24;67.93
41688;BME280;27371;42.686;23.362;2023-02-11T05:21:17;160548.69;;;-6.38;68.43
41688;BME280;27371;42.686;23.362;2023-02-11T05:23:43;160526.22;;;-6.47;69.03
41688;BME280;27371;42.686;23.362;2023-02-11T05:26:10;160507.72;;;-6.54;68.93
41688;BME280;27371;42.686;23.362;2023-02-11T05:28:36;160506.41;;;-6.55;69.37
41688;BME280;27371;42.686;23.362;2023-02-11T05:31:02;160511.72;;;-6.53;69.41
41688;BME280;27371;42.686;23.362;2023-02-11T05:33:28;160538.09;;;-6.42;69.37
41688;BME280;27371;42.686;23.362;2023-02-11T05:35:58;160542.06;;;-6.41;69.04
41688;BME280;27371;42.686;23.362;2023-02-11T05:38:25;160524.91;;;-6.47;69.04
41688;BME280;27371;42.686;23.362;2023-02-11T05:40:50;160506.41;;;-6.55;69.24
41688;BME280;27371;42.686;23.362;2023-02-11T05:43:16;160495.88;;;-6.59;68.90
41688;BME280;27371;42.686;23.362;2023-02-11T05:45:41;160447.00;;;-6.78;69.29
41688;BME280;27371;42.686;23.362;2023-02-11T05:48:07;160437.72;;;-6.81;69.88
41688;BME280;27371;42.686;23.362;2023-02-11T05:50:32;160468.13;;;-6.69;69.63
41688;BME280;27371;42.686;23.362;2023-02-11T05:52:57;160487.91;;;-6.62;69.52
41688;BME280;27371;42.686;23.362;2023-02-11T05:55:23;160507.72;;;-6.54;69.58
41688;BME280;27371;42.686;23.362;2023-02-11T05:57:48;160540.75;;;-6.41;69.75
41688;BME280;27371;42.686;23.362;2023-02-11T06:00:14;160547.38;;;-6.39;69.68
41688;BME280;27371;42.686;23.362;2023-02-11T06:02:40;160584.34;;;-6.24;69.02
41688;BME280;27371;42.686;23.362;2023-02-11T06:05:06;160614.72;;;-6.13;68.78
41688;BME280;27371;42.686;23.362;2023-02-11T06:07:32;160621.31;;;-6.10;68.17
41688;BME280;27371;42.686;23.362;2023-02-11T06:09:57;160522.25;;;-6.48;65.94
41688;BME280;27371;42.686;23.362;2023-02-11T06:12:24;160437.72;;;-6.81;67.50
41688;BME280;27371;42.686;23.362;2023-02-11T06:14:49;160468.13;;;-6.69;69.01
41688;BME280;27371;42.686;23.362;2023-02-11T06:17:14;160526.22;;;-6.47;69.52
41688;BME280;27371;42.686;23.362;2023-02-11T06:19:42;160565.81;;;-6.32;69.47
41688;BME280;27371;42.686;23.362;2023-02-11T06:22:08;160620.00;;;-6.11;69.35
41688;BME280;27371;42.686;23.362;2023-02-11T06:24:33;160592.25;;;-6.21;66.90
41688;BME280;27371;42.686;23.362;2023-02-11T06:26:59;160538.09;;;-6.42;67.09
41688;BME280;27371;42.686;23.362;2023-02-11T06:29:24;160511.72;;;-6.53;67.68
41688;BME280;27371;42.686;23.362;2023-02-11T06:31:50;160477.34;;;-6.66;67.47
41688;BME280;27371;42.686;23.362;2023-02-11T06:34:15;160478.69;;;-6.65;67.33
41688;BME280;27371;42.686;23.362;2023-02-11T06:36:41;160527.53;;;-6.46;68.65
41688;BME280;27371;42.686;23.362;2023-02-11T06:39:08;160592.25;;;-6.21;69.49
41688;BME280;27371;42.686;23.362;2023-02-11T06:41:34;160700.53;;;-5.79;69.80
41688;BME280;27371;42.686;23.362;2023-02-11T06:43:59;160763.97;;;-5.55;69.70
41688;BME280;27371;42.686;23.362;2023-02-11T06:46:25;160816.88;;;-5.34;69.28
41688;BME280;27371;42.686;23.362;2023-02-11T06:48:50;160824.78;;;-5.31;69.15
41688;BME280;27371;42.686;23.362;2023-02-11T06:51:16;160896.19;;;-5.04;68.55
41688;BME280;27371;42.686;23.362;2023-02-11T06:53:45;160935.81;;;-4.88;68.03
41688;BME280;27371;42.686;23.362;2023-02-11T06:56:14;160954.34;;;-4.81;67.11
41688;BME280;27371;42.686;23.362;2023-02-11T06:58:40;160971.53;;;-4.75;66.81
41688;BME280;27371;42.686;23.362;2023-02-11T07:01:07;161009.91;;;-4.60;66.36
41688;BME280;27371;42.686;23.362;2023-02-11T07:03:38;161035.00;;;-4.50;65.88
41688;BME280;27371;42.686;23.362;2023-02-11T07:06:06;161036.31;;;-4.50;65.51
41688;BME280;27371;42.686;23.362;2023-02-11T07:08:33;161077.34;;;-4.34;65.43
41688;BME280;27371;42.686;23.362;2023-02-11T07:10:58;161136.91;;;-4.11;65.19
41688;BME280;27371;42.686;23.362;2023-02-11T07:13:24;161185.81;;;-3.92;64.14
41688;BME280;27371;42.686;23.362;2023-02-11T07:15:49;161250.66;;;-3.67;63.45
41688;BME280;27371;42.686;23.362;2023-02-11T07:18:15;161275.84;;;-3.57;62.97
41688;BME280;27371;42.686;23.362;2023-02-11T07:20:40;161342.00;;;-3.31;62.47
41688;BME280;27371;42.686;23.362;2023-02-11T07:23:06;161371.13;;;-3.20;62.10
41688;BME280;27371;42.686;23.362;2023-02-11T07:25:32;161401.63;;;-3.08;61.44
41688;BME280;27371;42.686;23.362;2023-02-11T07:27:57;161389.69;;;-3.13;61.09
41688;BME280;27371;42.686;23.362;2023-02-11T07:30:23;161413.50;;;-3.04;60.66
41688;BME280;27371;42.686;23.362;2023-02-11T07:32:48;161442.63;;;-2.93;60.72
41688;BME280;27371;42.686;23.362;2023-02-11T07:35:14;161458.56;;;-2.86;60.29
41688;BME280;27371;42.686;23.362;2023-02-11T07:37:40;161514.16;;;-2.65;59.64
41688;BME280;27371;42.686;23.362;2023-02-11T07:40:06;161540.66;;;-2.55;59.71
41688;BME280;27371;42.686;23.362;2023-02-11T07:42:34;161588.38;;;-2.36;58.89
41688;BME280;27371;42.686;23.362;2023-02-11T07:44:59;161598.94;;;-2.32;58.90
41688;BME280;27371;42.686;23.362;2023-02-11T07:47:25;161622.81;;;-2.23;58.46
41688;BME280;27371;42.686;23.362;2023-02-11T07:49:50;161642.66;;;-2.15;58.54
41688;BME280;27371;42.686;23.362;2023-02-11T07:52:16;161693.00;;;-1.96;57.59
41688;BME280;27371;42.686;23.362;2023-02-11T07:54:41;161712.88;;;-1.88;57.99
41688;BME280;27371;42.686;23.362;2023-02-11T07:57:07;161712.88;;;-1.88;58.08
41688;BME280;27371;42.686;23.362;2023-02-11T07:59:33;161739.41;;;-1.78;57.72
41688;BME280;27371;42.686;23.362;2023-02-11T08:01:58;161811.00;;;-1.50;57.31
41688;BME280;27371;42.686;23.362;2023-02-11T08:04:25;161862.69;;;-1.30;56.77
41688;BME280;27371;42.686;23.362;2023-02-11T08:06:50;161948.88;;;-0.97;55.81
41688;BME280;27371;42.686;23.362;2023-02-11T08:09:17;161984.66;;;-0.83;54.50
41688;BME280;27371;42.686;23.362;2023-02-11T08:11:43;161996.63;;;-0.79;54.40
41688;BME280;27371;42.686;23.362;2023-02-11T08:14:09;161966.13;;;-0.91;54.33
41688;BME280;27371;42.686;23.362;2023-02-11T08:16:36;161968.78;;;-0.90;54.94
41688;BME280;27371;42.686;23.362;2023-02-11T08:19:06;161992.63;;;-0.80;54.46
41688;BME280;27371;42.686;23.362;2023-02-11T08:21:32;162007.22;;;-0.75;54.04
41688;BME280;27371;42.686;23.362;2023-02-11T08:23:57;162012.53;;;-0.73;54.15
41688;BME280;27371;42.686;23.362;2023-02-11T08:26:26;162072.25;;;-0.50;53.63
41688;BME280;27371;42.686;23.362;2023-02-11T08:28:54;162097.44;;;-0.40;53.47
41688;BME280;27371;42.686;23.362;2023-02-11T08:31:38;162127.94;;;-0.28;52.58
41688;BME280;27371;42.686;23.362;2023-02-11T08:34:04;162126.63;;;-0.29;52.23
41688;BME280;27371;42.686;23.362;2023-02-11T08:36:34;162137.25;;;-0.25;52.85
41688;BME280;27371;42.686;23.362;2023-02-11T08:39:03;162130.63;;;-0.27;52.72
41688;BME280;27371;42.686;23.362;2023-02-11T08:41:30;162135.91;;;-0.25;52.55
41688;BME280;27371;42.686;23.362;2023-02-11T08:43:56;162163.75;;;-0.14;52.13
41688;BME280;27371;42.686;23.362;2023-02-11T08:46:22;162181.03;;;-0.08;52.31
41688;BME280;27371;42.686;23.362;2023-02-11T08:48:48;162200.97;;;0.00;52.45
41688;BME280;27371;42.686;23.362;2023-02-11T08:51:17;162231.47;;;0.12;51.53
41688;BME280;27371;42.686;23.362;2023-02-11T08:53:43;162273.94;;;0.28;51.25
41688;BME280;27371;42.686;23.362;2023-02-11T08:56:09;162252.72;;;0.20;51.16
41688;BME280;27371;42.686;23.362;2023-02-11T08:58:35;162275.25;;;0.29;51.44
41688;BME280;27371;42.686;23.362;2023-02-11T09:01:00;162303.13;;;0.39;51.21
41688;BME280;27371;42.686;23.362;2023-02-11T09:03:26;162349.56;;;0.57;50.45
41688;BME280;27371;42.686;23.362;2023-02-11T09:05:52;162365.56;;;0.63;50.97
41688;BME280;27371;42.686;23.362;2023-02-11T09:08:19;162418.63;;;0.84;49.95
41688;BME280;27371;42.686;23.362;2023-02-11T09:10:45;162497.00;;;1.14;49.70
41688;BME280;27371;42.686;23.362;2023-02-11T09:13:11;162518.25;;;1.22;49.05
41688;BME280;27371;42.686;23.362;2023-02-11T09:15:36;162524.88;;;1.25;48.86
41688;BME280;27371;42.686;23.362;2023-02-11T09:18:03;162572.69;;;1.43;48.59
41688;BME280;27371;42.686;23.362;2023-02-11T09:20:29;162572.69;;;1.43;48.50
41688;BME280;27371;42.686;23.362;2023-02-11T09:22:56;162603.25;;;1.55;48.06
41688;BME280;27371;42.686;23.362;2023-02-11T09:25:23;162625.84;;;1.64;47.88
41688;BME280;27371;42.686;23.362;2023-02-11T09:27:48;162645.78;;;1.71;47.83
41688;BME280;27371;42.686;23.362;2023-02-11T09:30:15;162655.06;;;1.75;47.87
41688;BME280;27371;42.686;23.362;2023-02-11T09:32:41;162652.44;;;1.74;47.52
41688;BME280;27371;42.686;23.362;2023-02-11T09:35:07;162644.41;;;1.71;47.28
41688;BME280;27371;42.686;23.362;2023-02-11T09:37:32;162651.06;;;1.73;47.56
41688;BME280;27371;42.686;23.362;2023-02-11T09:39:57;162625.84;;;1.64;47.72
41688;BME280;27371;42.686;23.362;2023-02-11T09:45:27;162639.13;;;1.69;46.48
41688;BME280;27371;42.686;23.362;2023-02-11T09:50:27;162641.78;;;1.70;46.13
41688;BME280;27371;42.686;23.362;2023-02-11T09:53:22;162643.09;;;1.70;45.64
41688;BME280;27371;42.686;23.362;2023-02-11T09:55:51;162604.59;;;1.55;44.87
41688;BME280;27371;42.686;23.362;2023-02-11T10:06:20;162690.94;;;1.89;43.07
41688;BME280;27371;42.686;23.362;2023-02-11T10:14:28;162736.13;;;2.06;41.96
41688;BME280;27371;42.686;23.362;2023-02-11T10:17:06;162745.47;;;2.10;41.96
41688;BME280;27371;42.686;23.362;2023-02-11T10:24:56;162766.72;;;2.18;43.06
41688;BME280;27371;42.686;23.362;2023-02-11T10:27:30;162776.00;;;2.21;42.61
41688;BME280;27371;42.686;23.362;2023-02-11T10:30:00;162783.97;;;2.25;42.32
41688;BME280;27371;42.686;23.362;2023-02-11T10:32:34;162786.63;;;2.26;41.89
41688;BME280;27371;42.686;23.362;2023-02-11T10:35:13;162764.03;;;2.17;42.19
41688;BME280;27371;42.686;23.362;2023-02-11T10:37:40;162712.22;;;1.97;43.03
41688;BME280;27371;42.686;23.362;2023-02-11T10:40:12;162709.56;;;1.96;42.33
41688;BME280;27371;42.686;23.362;2023-02-11T10:42:38;162714.84;;;1.98;42.03
41688;BME280;27371;42.686;23.362;2023-02-11T10:45:06;162717.53;;;1.99;42.65
41688;BME280;27371;42.686;23.362;2023-02-11T10:47:35;162653.75;;;1.74;42.14
41688;BME280;27371;42.686;23.362;2023-02-11T10:50:22;162621.84;;;1.62;42.50
41688;BME280;27371;42.686;23.362;2023-02-11T10:52:48;162640.47;;;1.69;42.45
41688;BME280;27371;42.686;23.362;2023-02-11T10:55:19;162667.03;;;1.80;41.54
41688;BME280;27371;42.686;23.362;2023-02-11T10:57:58;162698.91;;;1.92;41.24
41688;BME280;27371;42.686;23.362;2023-02-11T11:00:27;162733.47;;;2.05;43.33
41688;BME280;27371;42.686;23.362;2023-02-11T11:02:57;162704.25;;;1.94;40.93
41688;BME280;27371;42.686;23.362;2023-02-11T11:05:33;162717.53;;;1.99;41.32
41688;BME280;27371;42.686;23.362;2023-02-11T11:08:03;162737.44;;;2.07;41.55
41688;BME280;27371;42.686;23.362;2023-02-11T11:10:35;162730.84;;;2.04;40.68
41688;BME280;27371;42.686;23.362;2023-02-11T11:16:14;162782.66;;;2.24;41.00
41688;BME280;27371;42.686;23.362;2023-02-11T11:18:45;162788.00;;;2.26;39.82
41688;BME280;27371;42.686;23.362;2023-02-11T11:21:24;162793.25;;;2.28;40.36
41688;BME280;27371;42.686;23.362;2023-02-11T11:23:54;162818.53;;;2.38;40.49
41688;BME280;27371;42.686;23.362;2023-02-11T11:26:20;162842.47;;;2.47;40.08
41688;BME280;27371;42.686;23.362;2023-02-11T11:29:07;162863.72;;;2.55;39.91
41688;BME280;27371;42.686;23.362;2023-02-11T11:31:53;162895.66;;;2.67;39.48
41688;BME280;27371;42.686;23.362;2023-02-11T11:34:37;163037.91;;;3.22;42.54
41688;BME280;27371;42.686;23.362;2023-02-11T11:37:11;162986.06;;;3.02;39.96
41688;BME280;27371;42.686;23.362;2023-02-11T11:39:38;162926.22;;;2.79;39.73
41688;BME280;27371;42.686;23.362;2023-02-11T11:45:25;162877.03;;;2.60;40.08
41688;BME280;27371;42.686;23.362;2023-02-11T11:50:30;162895.66;;;2.67;39.07
41688;BME280;27371;42.686;23.362;2023-02-11T11:55:40;162737.44;;;2.07;39.70
41688;BME280;27371;42.686;23.362;2023-02-11T11:58:14;162806.56;;;2.33;40.74
41688;BME280;27371;42.686;23.362;2023-02-11T12:00:55;162850.44;;;2.50;40.93
41688;BME280;27371;42.686;23.362;2023-02-11T12:13:55;162904.94;;;2.71;40.89
41688;BME280;27371;42.686;23.362;2023-02-11T12:22:21;162967.47;;;2.95;39.43
41688;BME280;27371;42.686;23.362;2023-02-11T12:27:48;163003.38;;;3.09;38.41
41688;BME280;27371;42.686;23.362;2023-02-11T12:30:45;163035.25;;;3.21;38.05
41688;BME280;27371;42.686;23.362;2023-02-11T12:43:36;163084.50;;;3.40;36.53
41688;BME280;27371;42.686;23.362;2023-02-11T12:46:33;163100.44;;;3.46;36.79
41688;BME280;27371;42.686;23.362;2023-02-11T12:55:08;163039.28;;;3.23;36.21
41688;BME280;27371;42.686;23.362;2023-02-11T12:57:37;163043.25;;;3.24;34.95
41688;BME280;27371;42.686;23.362;2023-02-11T13:03:23;163072.50;;;3.35;36.04
41688;BME280;27371;42.686;23.362;2023-02-11T13:05:53;163092.47;;;3.43;36.30
41688;BME280;27371;42.686;23.362;2023-02-11T13:10:54;163071.19;;;3.35;37.27
41688;BME280;27371;42.686;23.362;2023-02-11T13:13:26;163079.16;;;3.38;37.55
41688;BME280;27371;42.686;23.362;2023-02-11T13:16:00;163096.47;;;3.45;37.72
41688;BME280;27371;42.686;23.362;2023-02-11T13:30:22;163190.94;;;3.81;35.87
41688;BME280;27371;42.686;23.362;2023-02-11T13:35:27;163212.22;;;3.89;35.40
41688;BME280;27371;42.686;23.362;2023-02-11T13:37:54;163228.19;;;3.95;35.64
41688;BME280;27371;42.686;23.362;2023-02-11T13:40:24;163252.13;;;4.05;35.49
41688;BME280;27371;42.686;23.362;2023-02-11T13:45:40;163186.91;;;3.79;34.75
41688;BME280;27371;42.686;23.362;2023-02-11T13:48:23;163250.78;;;4.04;34.88
41688;BME280;27371;42.686;23.362;2023-02-11T13:50:52;163196.22;;;3.83;34.40
41688;BME280;27371;42.686;23.362;2023-02-11T13:53:19;163137.69;;;3.61;33.98
41688;BME280;27371;42.686;23.362;2023-02-11T13:55:48;163133.72;;;3.59;34.06
41688;BME280;27371;42.686;23.362;2023-02-11T13:58:15;163145.66;;;3.64;34.28
41688;BME280;27371;42.686;23.362;2023-02-11T14:09:38;163108.41;;;3.49;34.42
41688;BME280;27371;42.686;23.362;2023-02-11T14:11:50;163147.03;;;3.64;34.27
41688;BME280;27371;42.686;23.362;2023-02-11T14:14:28;163161.66;;;3.70;34.38
41688;BME280;27371;42.686;23.362;2023-02-11T14:19:43;163180.25;;;3.77;34.40
41688;BME280;27371;42.686;23.362;2023-02-11T14:27:12;163200.22;;;3.85;34.33
41688;BME280;27371;42.686;23.362;2023-02-11T14:30:07;163197.59;;;3.84;34.49
41688;BME280;27371;42.686;23.362;2023-02-11T14:32:51;163198.91;;;3.84;34.71
41688;BME280;27371;42.686;23.362;2023-02-11T14:38:34;163148.34;;;3.65;34.54
41688;BME280;27371;42.686;23.362;2023-02-11T14:41:08;163156.31;;;3.68;34.89
41688;BME280;27371;42.686;23.362;2023-02-11T14:43:39;163151.00;;;3.66;35.20
41688;BME280;27371;42.686;23.362;2023-02-11T14:46:05;163131.03;;;3.58;35.72
41688;BME280;27371;42.686;23.362;2023-02-11T14:48:36;163072.50;;;3.35;36.01
41688;BME280;27371;42.686;23.362;2023-02-11T14:51:07;163032.63;;;3.20;36.48
41688;BME280;27371;42.686;23.362;2023-02-11T14:53:35;163016.63;;;3.14;36.66
41688;BME280;27371;42.686;23.362;2023-02-11T14:56:01;162996.72;;;3.06;36.79
41688;BME280;27371;42.686;23.362;2023-02-11T14:58:29;162979.41;;;3.00;36.52
41688;BME280;27371;42.686;23.362;2023-02-11T15:01:00;162996.72;;;3.06;36.77
41688;BME280;27371;42.686;23.362;2023-02-11T15:08:43;162964.78;;;2.94;37.42
41688;BME280;27371;42.686;23.362;2023-02-11T15:11:14;162971.44;;;2.97;37.59
41688;BME280;27371;42.686;23.362;2023-02-11T15:13:40;162964.78;;;2.94;37.57
41688;BME280;27371;42.686;23.362;2023-02-11T15:16:12;162984.72;;;3.02;37.65
41688;BME280;27371;42.686;23.362;2023-02-11T15:18:46;162986.06;;;3.02;37.63
41688;BME280;27371;42.686;23.362;2023-02-11T15:21:19;162962.13;;;2.93;37.79
41688;BME280;27371;42.686;23.362;2023-02-11T15:23:58;162972.75;;;2.97;37.81
41688;BME280;27371;42.686;23.362;2023-02-11T15:26:24;162962.13;;;2.93;37.79